Terminal Aerodrome Forecast
Issued by NWS

Home | Current Version | Previous Version | Text Only | Print | Product List | Glossary On
Versions: 1 2 3 4 5 6 7 8 9 10 11 12 13 14 15
000
FTUS43 KDLH 151700
TAFBRD
TAF
KBRD 151724Z 1518/1618 18019G31KT P6SM BKN250
     FM160100 16007KT P6SM SCT050 OVC250
     FM160900 17006KT P6SM VCSH OVC050
     FM161200 20004KT P6SM OVC045
     FM161700 26004KT P6SM BKN070=

USA.gov is the U.S. government's official web portal to all federal, state and local government web resources and services.